createdAt,value
2022-11-08T00:02:13.092Z,0.40
2022-11-08T00:04:40.849Z,0.67
2022-11-08T00:07:26.865Z,0.60
2022-11-08T00:10:12.936Z,0.53
2022-11-08T00:12:58.915Z,0.60
2022-11-08T00:15:26.314Z,0.57
2022-11-08T00:17:53.710Z,0.30
2022-11-08T00:20:21.099Z,0.53
2022-11-08T00:22:48.476Z,0.50
2022-11-08T00:25:15.951Z,0.70
2022-11-08T00:27:43.334Z,0.60
2022-11-08T00:30:10.959Z,0.40
2022-11-08T00:32:38.283Z,0.57
2022-11-08T00:35:05.864Z,0.60
2022-11-08T00:37:33.223Z,0.40
2022-11-08T00:40:00.560Z,0.30
2022-11-08T00:42:27.970Z,0.30
2022-11-08T00:44:55.339Z,0.40
2022-11-08T00:47:22.756Z,0.50
2022-11-08T00:49:50.230Z,0.30
2022-11-08T00:52:17.525Z,0.60
2022-11-08T00:54:44.947Z,0.27
2022-11-08T00:57:12.367Z,0.50
2022-11-08T00:59:39.735Z,0.50
2022-11-08T01:02:07.302Z,0.40
2022-11-08T01:04:34.747Z,0.40
2022-11-08T01:07:02.427Z,0.40
2022-11-08T01:09:29.768Z,0.50
2022-11-08T01:11:57.096Z,0.40
2022-11-08T01:14:24.553Z,0.33
2022-11-08T01:16:52.477Z,0.60
2022-11-08T01:19:19.971Z,0.40
2022-11-08T01:21:47.484Z,0.40
2022-11-08T01:24:14.778Z,0.67
2022-11-08T01:26:42.159Z,0.60
2022-11-08T01:29:09.667Z,0.70
2022-11-08T01:31:37.013Z,0.40
2022-11-08T01:34:04.553Z,0.40
2022-11-08T01:36:32.032Z,0.40
2022-11-08T01:38:59.347Z,0.40
2022-11-08T01:41:29.646Z,0.40
2022-11-08T01:43:58.263Z,0.50
2022-11-08T01:46:32.269Z,0.33
2022-11-08T01:49:05.452Z,0.37
2022-11-08T01:51:38.735Z,0.37
2022-11-08T01:54:07.607Z,0.40
2022-11-08T01:56:35.892Z,0.30
2022-11-08T01:59:04.708Z,0.40
2022-11-08T02:01:32.290Z,0.50
2022-11-08T02:04:00.529Z,0.30
2022-11-08T02:06:29.626Z,0.30
2022-11-08T02:09:01.155Z,0.50
2022-11-08T02:11:29.295Z,0.30
2022-11-08T02:13:56.668Z,0.40
2022-11-08T02:16:24.199Z,0.40
2022-11-08T02:18:51.495Z,0.50
2022-11-08T02:21:23.475Z,0.40
2022-11-08T02:23:50.865Z,0.33
2022-11-08T02:26:19.626Z,0.50
2022-11-08T02:28:48.399Z,0.40
2022-11-08T02:31:17.482Z,0.40
2022-11-08T02:33:45.534Z,0.77
2022-11-08T02:36:15.380Z,0.40
2022-11-08T02:38:45.712Z,0.40
2022-11-08T02:41:13.412Z,0.47
2022-11-08T02:43:40.779Z,0.40
2022-11-08T02:46:08.190Z,0.70
2022-11-08T02:48:35.591Z,0.40
2022-11-08T02:51:02.981Z,0.40
2022-11-08T02:53:30.275Z,0.40
2022-11-08T02:55:57.682Z,0.40
2022-11-08T02:58:25.181Z,0.63
2022-11-08T03:00:52.455Z,0.30
2022-11-08T03:03:20.019Z,0.60
2022-11-08T03:05:47.698Z,0.50
2022-11-08T03:08:15.724Z,0.27
2022-11-08T03:10:43.420Z,0.50
2022-11-08T03:13:10.826Z,0.53
2022-11-08T03:15:38.094Z,0.53
2022-11-08T03:18:05.534Z,0.33
2022-11-08T03:20:33.552Z,0.80
2022-11-08T03:23:02.233Z,0.57
2022-11-08T03:25:32.455Z,0.40
2022-11-08T03:28:03.671Z,0.50
2022-11-08T03:30:30.943Z,0.30
2022-11-08T03:32:58.235Z,0.50
2022-11-08T03:35:25.629Z,0.40
2022-11-08T03:37:53.504Z,0.33
2022-11-08T03:40:21.158Z,0.60
2022-11-08T03:42:48.697Z,0.50
2022-11-08T03:45:16.567Z,0.30
2022-11-08T03:47:44.728Z,0.60
2022-11-08T03:50:12.713Z,0.43
2022-11-08T03:52:43.266Z,0.50
2022-11-08T03:55:11.122Z,0.40
2022-11-08T03:57:39.011Z,0.40
2022-11-08T04:00:07.604Z,0.70
2022-11-08T04:02:35.073Z,0.40
2022-11-08T04:05:02.514Z,0.43
2022-11-08T04:07:30.399Z,0.40
2022-11-08T04:09:57.806Z,0.37
2022-11-08T04:12:43.631Z,0.37
2022-11-08T04:15:16.122Z,0.50
2022-11-08T04:18:02.559Z,0.50
2022-11-08T04:20:49.148Z,0.40
2022-11-08T04:23:17.185Z,0.87
2022-11-08T04:25:45.159Z,0.50
2022-11-08T04:28:12.519Z,0.50
2022-11-08T04:30:39.875Z,0.20
2022-11-08T04:33:07.144Z,0.40
2022-11-08T04:35:34.611Z,0.50
2022-11-08T04:38:02.602Z,0.50
2022-11-08T04:40:31.848Z,0.40
2022-11-08T04:42:59.315Z,0.33
2022-11-08T04:45:26.705Z,0.40
2022-11-08T04:47:54.127Z,0.40
2022-11-08T04:50:21.579Z,0.90
2022-11-08T04:52:55.719Z,0.67
2022-11-08T04:55:23.552Z,0.80
2022-11-08T04:57:51.109Z,0.50
2022-11-08T05:00:18.952Z,0.40
2022-11-08T05:02:46.482Z,0.50
2022-11-08T05:05:14.095Z,0.40
2022-11-08T05:07:41.539Z,0.37
2022-11-08T05:10:09.135Z,0.30
2022-11-08T05:12:36.508Z,0.40
2022-11-08T05:15:03.878Z,0.30
2022-11-08T05:17:32.745Z,0.50
2022-11-08T05:20:18.785Z,0.50
2022-11-08T05:23:04.765Z,0.40
2022-11-08T05:25:38.645Z,0.40
2022-11-08T05:28:06.125Z,0.50
2022-11-08T05:30:33.603Z,0.40
2022-11-08T05:33:00.964Z,0.60
2022-11-08T05:35:28.333Z,0.70
2022-11-08T05:37:55.667Z,0.50
2022-11-08T05:40:23.039Z,0.30
2022-11-08T05:42:50.435Z,1.00
2022-11-08T05:45:17.848Z,0.47
2022-11-08T05:47:46.112Z,0.60
2022-11-08T05:50:19.088Z,0.60
2022-11-08T05:52:46.864Z,0.60
2022-11-08T05:55:14.252Z,0.50
2022-11-08T05:57:44.706Z,0.60
2022-11-08T06:00:13.228Z,0.70
2022-11-08T06:02:40.919Z,0.60
2022-11-08T06:05:09.011Z,0.53
2022-11-08T06:07:37.104Z,0.47
2022-11-08T06:10:05.309Z,0.40
2022-11-08T06:12:32.760Z,0.70
2022-11-08T06:15:00.165Z,0.50
2022-11-08T06:17:30.114Z,1.80
2022-11-08T06:20:00.795Z,0.80
2022-11-08T06:22:31.675Z,1.00
2022-11-08T06:24:59.028Z,1.10
2022-11-08T06:27:26.817Z,0.90
2022-11-08T06:29:54.293Z,0.73
2022-11-08T06:32:21.675Z,0.90
2022-11-08T06:34:49.236Z,0.83
2022-11-08T06:37:17.209Z,0.60
2022-11-08T06:39:44.940Z,0.73
2022-11-08T06:42:12.484Z,1.43
2022-11-08T06:44:40.059Z,0.97
2022-11-08T06:47:07.432Z,1.07
2022-11-08T06:49:37.885Z,1.10
2022-11-08T06:52:05.455Z,1.20
2022-11-08T06:54:32.901Z,1.30
2022-11-08T06:57:00.673Z,0.80
2022-11-08T06:59:28.146Z,0.80
2022-11-08T07:01:56.230Z,0.93
2022-11-08T07:04:24.087Z,1.50
2022-11-08T07:06:51.527Z,1.40
2022-11-08T07:09:18.926Z,1.67
2022-11-08T07:11:46.627Z,1.40
2022-11-08T07:14:14.024Z,1.80
2022-11-08T07:16:42.166Z,1.27
2022-11-08T07:19:09.634Z,1.23
2022-11-08T07:21:37.153Z,1.17
2022-11-08T07:24:04.604Z,1.17
2022-11-08T07:26:31.935Z,0.80
2022-11-08T07:28:59.384Z,0.80
2022-11-08T07:31:27.859Z,0.60
2022-11-08T07:33:55.209Z,0.63
2022-11-08T07:36:22.565Z,0.77
2022-11-08T07:38:49.967Z,0.77
2022-11-08T07:41:17.366Z,0.53
2022-11-08T07:43:44.769Z,0.90
2022-11-08T07:46:12.207Z,0.63
2022-11-08T07:48:39.653Z,0.50
2022-11-08T07:51:07.092Z,0.77
2022-11-08T07:53:37.298Z,0.70
2022-11-08T07:56:04.753Z,1.13
2022-11-08T07:58:32.183Z,1.10
2022-11-08T08:01:03.534Z,0.73
2022-11-08T08:03:31.610Z,1.00
2022-11-08T08:06:01.351Z,1.40
2022-11-08T08:08:29.953Z,1.10
2022-11-08T08:10:58.419Z,1.03
2022-11-08T08:13:25.749Z,2.67
2022-11-08T08:15:53.069Z,2.60
2022-11-08T08:18:21.805Z,1.17
2022-11-08T08:20:49.261Z,0.80
2022-11-08T08:23:17.035Z,0.70
2022-11-08T08:25:44.716Z,0.80
2022-11-08T08:28:12.120Z,0.90
2022-11-08T08:30:40.898Z,1.33
2022-11-08T08:33:38.394Z,1.10
2022-11-08T08:35:57.092Z,0.70
2022-11-08T08:38:24.509Z,1.20
2022-11-08T08:40:52.097Z,0.90
2022-11-08T08:43:20.875Z,1.07
2022-11-08T08:45:49.052Z,1.00
2022-11-08T08:48:16.605Z,1.00
2022-11-08T08:50:44.070Z,0.90
2022-11-08T08:53:11.564Z,0.90
2022-11-08T08:55:39.565Z,0.80
2022-11-08T08:58:07.007Z,1.00
2022-11-08T09:03:22.243Z,1.20
2022-11-08T09:05:49.789Z,1.83
2022-11-08T09:08:17.199Z,1.50
2022-11-08T09:10:44.607Z,1.70
2022-11-08T09:13:11.945Z,1.23
2022-11-08T09:15:39.577Z,1.07
2022-11-08T09:18:07.271Z,1.20
2022-11-08T09:20:34.692Z,1.30
2022-11-08T09:23:03.121Z,1.10
2022-11-08T09:25:30.550Z,1.20
2022-11-08T09:27:57.935Z,1.00
2022-11-08T09:30:26.514Z,1.20
2022-11-08T09:33:00.864Z,0.93
2022-11-08T09:35:29.490Z,1.00
2022-11-08T09:37:57.071Z,1.10
2022-11-08T09:40:41.527Z,1.20
2022-11-08T09:43:15.369Z,1.37
2022-11-08T09:45:46.605Z,1.20
2022-11-08T09:48:34.291Z,1.00
2022-11-08T09:51:06.174Z,1.23
2022-11-08T09:53:40.375Z,1.17
2022-11-08T09:56:13.840Z,1.30
2022-11-08T09:58:44.142Z,1.80
2022-11-08T10:01:12.572Z,1.57
2022-11-08T10:03:40.767Z,1.50
2022-11-08T10:06:17.186Z,1.40
2022-11-08T10:08:50.512Z,1.60
2022-11-08T10:11:24.336Z,1.27
2022-11-08T10:14:03.824Z,1.10
2022-11-08T10:16:31.156Z,1.20
2022-11-08T10:19:16.146Z,1.20
2022-11-08T10:21:55.480Z,1.30
2022-11-08T10:24:43.036Z,1.10
2022-11-08T10:27:19.234Z,1.67
2022-11-08T10:29:46.905Z,1.00
2022-11-08T10:32:17.244Z,0.97
2022-11-08T10:34:50.408Z,0.97
2022-11-08T10:37:18.703Z,1.20
2022-11-08T10:39:53.053Z,0.50
2022-11-08T10:42:24.932Z,1.10
2022-11-08T10:44:52.299Z,1.00
2022-11-08T10:47:27.190Z,1.17
2022-11-08T10:49:58.269Z,3.13
2022-11-08T10:52:48.490Z,1.30
2022-11-08T10:55:31.061Z,0.90
2022-11-08T10:57:58.600Z,1.70
2022-11-08T11:00:35.137Z,0.90
2022-11-08T11:03:02.482Z,0.70
2022-11-08T11:05:32.195Z,0.60
2022-11-08T11:08:14.660Z,0.60
2022-11-08T11:10:43.413Z,0.57
2022-11-08T11:13:10.797Z,1.30
2022-11-08T11:16:03.161Z,0.50
2022-11-08T11:18:33.270Z,0.40
2022-11-08T11:21:05.860Z,0.30
2022-11-08T11:23:47.012Z,0.40
2022-11-08T11:26:32.910Z,0.50
2022-11-08T11:29:06.081Z,0.52
2022-11-08T11:31:33.520Z,0.50
2022-11-08T11:34:02.450Z,0.50
2022-11-08T11:36:30.489Z,0.57
2022-11-08T11:39:09.920Z,0.50
2022-11-08T11:41:51.716Z,0.40
2022-11-08T11:44:21.956Z,0.40
2022-11-08T11:46:55.554Z,0.60
2022-11-08T11:49:24.606Z,0.60
2022-11-08T11:51:56.491Z,0.60
2022-11-08T11:54:32.031Z,0.40
2022-11-08T11:57:05.192Z,0.63
2022-11-08T11:59:44.809Z,0.50
2022-11-08T12:02:31.040Z,0.50
2022-11-08T12:05:10.608Z,0.60
2022-11-08T12:07:44.042Z,0.55
2022-11-08T12:10:23.972Z,0.60
2022-11-08T12:12:54.549Z,0.40
2022-11-08T12:16:00.366Z,0.30
2022-11-08T12:18:42.826Z,0.35
2022-11-08T12:21:16.092Z,0.40
2022-11-08T12:23:50.498Z,0.25
2022-11-08T12:26:24.508Z,0.30
2022-11-08T12:28:57.808Z,0.70
2022-11-08T12:31:47.986Z,0.30
2022-11-08T12:34:33.688Z,0.70
2022-11-08T12:37:03.773Z,0.77
2022-11-08T12:39:31.162Z,0.30
2022-11-08T12:42:17.282Z,0.47
2022-11-08T12:44:47.614Z,0.60
2022-11-08T12:47:31.438Z,0.70
2022-11-08T12:50:13.887Z,0.32
2022-11-08T12:52:59.925Z,0.50
2022-11-08T12:55:29.699Z,1.20
2022-11-08T12:57:58.879Z,0.45
2022-11-08T13:00:28.186Z,0.70
2022-11-08T13:03:07.843Z,0.60
2022-11-08T13:05:45.281Z,0.40
2022-11-08T13:08:12.609Z,0.47
2022-11-08T13:11:00.179Z,0.43
2022-11-08T13:13:46.057Z,0.50
2022-11-08T13:16:15.771Z,0.60
2022-11-08T13:18:50.592Z,0.30
2022-11-08T13:21:27.232Z,0.40
2022-11-08T13:23:55.197Z,0.32
2022-11-08T13:26:23.694Z,0.40
2022-11-08T13:28:51.643Z,0.60
2022-11-08T13:31:31.157Z,0.40
2022-11-08T13:34:10.385Z,0.55
2022-11-08T13:36:52.373Z,0.43
2022-11-08T13:39:19.596Z,0.60
2022-11-08T13:42:04.311Z,1.10
2022-11-08T13:44:50.110Z,0.90
2022-11-08T13:47:44.081Z,0.80
2022-11-08T13:50:31.467Z,0.50
2022-11-08T13:53:17.284Z,0.93
2022-11-08T13:55:45.911Z,1.30
2022-11-08T13:58:31.821Z,1.30
2022-11-08T14:00:59.721Z,0.80
2022-11-08T14:03:33.335Z,0.50
2022-11-08T14:06:06.638Z,0.70
2022-11-08T14:08:50.731Z,1.00
2022-11-08T14:11:26.739Z,0.40
2022-11-08T14:13:57.387Z,0.77
2022-11-08T14:16:29.494Z,0.40
2022-11-08T14:19:06.404Z,0.47
2022-11-08T14:21:34.294Z,8.20
2022-11-08T14:24:01.645Z,0.55
2022-11-08T14:26:32.530Z,0.50
2022-11-08T14:29:00.818Z,0.32
2022-11-08T14:31:30.541Z,0.30
2022-11-08T14:33:58.578Z,0.70
2022-11-08T14:36:27.255Z,0.47
2022-11-08T14:39:00.777Z,0.40
2022-11-08T14:41:29.627Z,0.50
2022-11-08T14:43:58.760Z,0.37
2022-11-08T14:46:26.089Z,0.43
2022-11-08T14:48:54.686Z,0.50
2022-11-08T14:51:25.878Z,0.50
2022-11-08T14:53:56.772Z,0.30
2022-11-08T14:56:25.335Z,0.57
2022-11-08T14:58:53.854Z,0.50
2022-11-08T15:01:25.999Z,0.50
2022-11-08T15:03:57.849Z,0.60
2022-11-08T15:06:32.350Z,0.50
2022-11-08T15:09:00.050Z,0.43
2022-11-08T15:11:52.742Z,0.40
2022-11-08T15:14:22.583Z,0.53
2022-11-08T15:16:51.451Z,0.30
2022-11-08T15:19:19.525Z,0.40
2022-11-08T15:21:50.124Z,0.97
2022-11-08T15:24:18.030Z,0.80
2022-11-08T15:27:03.460Z,0.70
2022-11-08T15:29:31.262Z,0.50
2022-11-08T15:32:01.679Z,0.40
2022-11-08T15:34:38.106Z,0.60
2022-11-08T15:37:42.576Z,0.40
2022-11-08T15:40:19.823Z,0.60
2022-11-08T15:42:48.241Z,0.33
2022-11-08T15:45:18.164Z,0.50
2022-11-08T15:47:47.774Z,0.50
2022-11-08T15:50:15.268Z,0.70
2022-11-08T15:52:42.897Z,0.80
2022-11-08T15:55:14.050Z,1.07
2022-11-08T15:57:42.558Z,0.60
2022-11-08T16:00:29.646Z,0.40
2022-11-08T16:02:57.121Z,0.40
2022-11-08T16:05:25.669Z,0.60
2022-11-08T16:07:53.512Z,0.57
2022-11-08T16:10:33.159Z,0.60
2022-11-08T16:13:01.149Z,0.93
2022-11-08T16:15:30.493Z,0.60
2022-11-08T16:17:57.932Z,0.50
2022-11-08T16:20:32.810Z,0.60
2022-11-08T16:23:01.386Z,0.70
2022-11-08T16:25:29.754Z,1.70
2022-11-08T16:28:08.325Z,0.90
2022-11-08T16:30:36.253Z,2.27
2022-11-08T16:33:16.868Z,1.77
2022-11-08T16:35:44.329Z,0.67
2022-11-08T16:38:11.727Z,2.10
2022-11-08T16:40:41.390Z,1.30
2022-11-08T16:43:12.455Z,1.00
2022-11-08T16:46:03.700Z,0.90
2022-11-08T16:48:27.885Z,0.60
2022-11-08T16:51:02.479Z,0.60
2022-11-08T16:53:30.328Z,1.80
2022-11-08T16:55:58.086Z,1.53
2022-11-08T16:58:26.069Z,1.20
2022-11-08T17:00:53.625Z,1.47
2022-11-08T17:03:22.471Z,1.53
2022-11-08T17:05:54.208Z,1.10
2022-11-08T17:08:22.281Z,1.30
2022-11-08T17:10:49.771Z,1.30
2022-11-08T17:13:17.802Z,1.43
2022-11-08T17:15:45.368Z,2.30
2022-11-08T17:18:13.892Z,0.90
2022-11-08T17:20:41.249Z,1.40
2022-11-08T17:23:09.242Z,1.60
2022-11-08T17:25:37.411Z,1.37
2022-11-08T17:28:05.414Z,2.03
2022-11-08T17:30:32.939Z,2.93
2022-11-08T17:33:00.339Z,3.70
2022-11-08T17:35:27.727Z,2.33
2022-11-08T17:37:55.204Z,5.40
2022-11-08T17:40:22.546Z,3.10
2022-11-08T17:42:49.850Z,3.33
2022-11-08T17:45:17.245Z,2.27
2022-11-08T17:47:44.651Z,4.57
2022-11-08T17:50:12.163Z,1.90
2022-11-08T17:52:39.512Z,3.67
2022-11-08T17:55:07.220Z,6.00
2022-11-08T17:57:34.586Z,4.10
2022-11-08T18:00:02.388Z,3.90
2022-11-08T18:02:30.028Z,3.80
2022-11-08T18:04:57.556Z,2.43
2022-11-08T18:07:24.944Z,1.20
2022-11-08T18:09:53.569Z,0.90
2022-11-08T18:12:21.052Z,1.07
2022-11-08T18:14:48.378Z,0.90
2022-11-08T18:17:15.727Z,1.10
2022-11-08T18:19:44.847Z,1.43
2022-11-08T18:22:12.343Z,1.30
2022-11-08T18:24:39.680Z,1.40
2022-11-08T18:27:07.028Z,2.47
2022-11-08T18:29:34.558Z,1.60
2022-11-08T18:32:01.932Z,1.07
2022-11-08T18:34:29.293Z,1.30
2022-11-08T18:36:56.863Z,0.97
2022-11-08T18:39:24.184Z,1.20
2022-11-08T18:41:53.150Z,1.13
2022-11-08T18:44:20.632Z,1.40
2022-11-08T18:46:48.337Z,1.60
2022-11-08T18:49:15.810Z,2.93
2022-11-08T18:51:43.207Z,1.47
2022-11-08T18:54:10.580Z,1.00
2022-11-08T18:56:38.469Z,1.50
2022-11-08T18:59:06.625Z,1.80
2022-11-08T19:01:33.943Z,2.00
2022-11-08T19:04:01.405Z,1.10
2022-11-08T19:06:29.351Z,1.30
2022-11-08T19:08:57.745Z,1.23
2022-11-08T19:11:25.165Z,1.40
2022-11-08T19:13:55.687Z,1.73
2022-11-08T19:16:23.187Z,1.27
2022-11-08T19:18:50.771Z,1.20
2022-11-08T19:21:22.512Z,1.07
2022-11-08T19:23:50.405Z,1.43
2022-11-08T19:26:17.770Z,1.40
2022-11-08T19:28:45.791Z,2.07
2022-11-08T19:31:14.000Z,1.60
2022-11-08T19:33:41.875Z,1.70
2022-11-08T19:36:10.429Z,1.43
2022-11-08T19:38:38.502Z,1.40
2022-11-08T19:41:07.047Z,1.53
2022-11-08T19:43:35.316Z,1.20
2022-11-08T19:46:03.598Z,1.30
2022-11-08T19:48:32.237Z,1.83
2022-11-08T19:51:01.885Z,2.40
2022-11-08T19:53:29.477Z,1.77
2022-11-08T19:56:03.467Z,1.40
2022-11-08T19:58:31.698Z,1.00
2022-11-08T20:00:59.203Z,1.17
2022-11-08T20:03:26.740Z,0.87
2022-11-08T20:05:57.895Z,1.43
2022-11-08T20:08:25.292Z,1.10
2022-11-08T20:10:52.748Z,0.80
2022-11-08T20:13:20.165Z,1.20
2022-11-08T20:15:47.829Z,1.17
2022-11-08T20:18:15.348Z,1.30
2022-11-08T20:20:43.788Z,1.00
2022-11-08T20:23:15.061Z,1.13
2022-11-08T20:25:42.508Z,1.40
2022-11-08T20:28:10.050Z,0.90
2022-11-08T20:30:39.196Z,1.17
2022-11-08T20:33:07.971Z,1.37
2022-11-08T20:35:36.574Z,1.27
2022-11-08T20:38:04.619Z,1.30
2022-11-08T20:40:31.987Z,2.10
2022-11-08T20:42:59.279Z,1.40
2022-11-08T20:45:26.779Z,1.53
2022-11-08T20:47:54.208Z,1.20
2022-11-08T20:50:21.600Z,1.33
2022-11-08T20:52:49.010Z,1.20
2022-11-08T20:55:16.434Z,1.33
2022-11-08T20:57:43.819Z,0.90
2022-11-08T21:00:13.813Z,1.00
2022-11-08T21:02:41.854Z,0.90
2022-11-08T21:05:09.444Z,0.93
2022-11-08T21:13:11.800Z,0.90
2022-11-08T21:15:39.194Z,0.90
2022-11-08T21:18:06.578Z,1.00
2022-11-08T21:20:33.923Z,1.00
2022-11-08T21:23:01.283Z,1.20
2022-11-08T21:25:28.675Z,0.90
2022-11-08T21:27:56.084Z,1.77
2022-11-08T21:30:23.469Z,1.13
2022-11-08T21:32:50.801Z,1.57
2022-11-08T21:35:18.225Z,1.07
2022-11-08T21:37:45.564Z,1.50
2022-11-08T21:40:13.979Z,1.30
2022-11-08T21:42:46.090Z,1.17
2022-11-08T21:45:15.930Z,1.10
2022-11-08T21:47:43.372Z,0.97
2022-11-08T21:50:10.812Z,1.13
2022-11-08T21:52:38.133Z,1.03
2022-11-08T21:55:05.601Z,1.17
2022-11-08T21:57:33.033Z,1.10
2022-11-08T22:00:00.390Z,0.97
2022-11-08T22:02:27.747Z,0.60
2022-11-08T22:04:55.133Z,0.73
2022-11-08T22:07:22.555Z,0.53
2022-11-08T22:09:49.894Z,1.10
2022-11-08T22:12:17.140Z,1.20
2022-11-08T22:14:44.558Z,1.00
2022-11-08T22:17:11.898Z,1.00
2022-11-08T22:19:40.421Z,1.20
2022-11-08T22:22:08.037Z,1.00
2022-11-08T22:24:35.365Z,1.10
2022-11-08T22:27:02.719Z,1.00
2022-11-08T22:29:30.067Z,1.10
2022-11-08T22:31:57.752Z,1.20
2022-11-08T22:34:25.260Z,1.10
2022-11-08T22:36:52.664Z,0.90
2022-11-08T22:39:21.505Z,1.00
2022-11-08T22:41:49.657Z,0.93
2022-11-08T22:44:17.512Z,0.80
2022-11-08T22:46:45.626Z,1.00
2022-11-08T22:49:13.403Z,1.43
2022-11-08T22:51:41.445Z,1.23
2022-11-08T22:54:09.268Z,1.27
2022-11-08T22:56:36.957Z,0.90
2022-11-08T22:59:04.743Z,0.90
2022-11-08T23:01:32.209Z,1.10
2022-11-08T23:03:59.503Z,1.27
2022-11-08T23:06:26.841Z,0.90
2022-11-08T23:08:54.311Z,0.97
2022-11-08T23:11:40.158Z,1.13
2022-11-08T23:14:25.898Z,1.30
2022-11-08T23:16:53.205Z,0.90
2022-11-08T23:20:00.030Z,0.97
2022-11-08T23:22:45.993Z,1.13
2022-11-08T23:25:13.267Z,1.00
2022-11-08T23:27:59.054Z,0.63
2022-11-08T23:30:44.700Z,0.97
2022-11-08T23:33:12.141Z,0.63
2022-11-08T23:35:59.474Z,0.70
2022-11-08T23:38:26.833Z,0.90
2022-11-08T23:41:12.308Z,1.00
2022-11-08T23:43:58.573Z,1.10
2022-11-08T23:46:25.933Z,0.87
2022-11-08T23:48:53.353Z,0.90
2022-11-08T23:51:20.790Z,0.90
2022-11-08T23:53:48.048Z,0.87
2022-11-08T23:56:23.497Z,0.83
2022-11-08T23:58:53.953Z,0.73
